sensor_id;sensor_type;location;lat;lon;timestamp;P1;durP1;ratioP1;P2;durP2;ratioP2
2652;SDS011;1336;48.692;9.144;2022-07-29T05:00:42;4.10;;;3.80;;
2652;SDS011;1336;48.692;9.144;2022-07-29T05:01:34;3.90;;;3.60;;
2652;SDS011;1336;48.692;9.144;2022-07-29T05:02:24;3.83;;;3.53;;
2652;SDS011;1336;48.692;9.144;2022-07-29T05:03:16;4.07;;;3.80;;
2652;SDS011;1336;48.692;9.144;2022-07-29T05:04:07;3.93;;;3.73;;
2652;SDS011;1336;48.692;9.144;2022-07-29T05:04:59;4.30;;;4.00;;
2652;SDS011;1336;48.692;9.144;2022-07-29T05:05:49;4.63;;;4.30;;
2652;SDS011;1336;48.692;9.144;2022-07-29T05:06:41;4.30;;;4.00;;
2652;SDS011;1336;48.692;9.144;2022-07-29T05:07:32;4.30;;;4.00;;
2652;SDS011;1336;48.692;9.144;2022-07-29T05:08:24;4.32;;;4.03;;
2652;SDS011;1336;48.692;9.144;2022-07-29T05:09:14;4.60;;;4.20;;
2652;SDS011;1336;48.692;9.144;2022-07-29T05:10:06;4.55;;;4.15;;
2652;SDS011;1336;48.692;9.144;2022-07-29T05:10:58;5.28;;;4.78;;
2652;SDS011;1336;48.692;9.144;2022-07-29T05:11:50;4.20;;;4.00;;
2652;SDS011;1336;48.692;9.144;2022-07-29T05:12:40;5.20;;;4.43;;
2652;SDS011;1336;48.692;9.144;2022-07-29T05:13:32;4.80;;;4.45;;
2652;SDS011;1336;48.692;9.144;2022-07-29T05:14:23;4.17;;;3.87;;
2652;SDS011;1336;48.692;9.144;2022-07-29T05:15:15;5.10;;;4.50;;
2652;SDS011;1336;48.692;9.144;2022-07-29T05:16:08;5.03;;;4.63;;
2652;SDS011;1336;48.692;9.144;2022-07-29T05:17:00;5.10;;;4.80;;
2652;SDS011;1336;48.692;9.144;2022-07-29T05:17:51;4.80;;;4.50;;
2652;SDS011;1336;48.692;9.144;2022-07-29T05:18:43;5.13;;;4.72;;
2652;SDS011;1336;48.692;9.144;2022-07-29T05:19:33;5.10;;;4.60;;
2652;SDS011;1336;48.692;9.144;2022-07-29T05:20:25;5.25;;;4.85;;
2652;SDS011;1336;48.692;9.144;2022-07-29T05:21:18;5.20;;;4.80;;
2652;SDS011;1336;48.692;9.144;2022-07-29T05:22:09;5.47;;;4.85;;
2652;SDS011;1336;48.692;9.144;2022-07-29T05:23:00;4.60;;;4.20;;
2652;SDS011;1336;48.692;9.144;2022-07-29T05:23:53;5.75;;;4.95;;
2652;SDS011;1336;48.692;9.144;2022-07-29T05:24:44;4.70;;;4.40;;
2652;SDS011;1336;48.692;9.144;2022-07-29T05:25:35;5.03;;;4.53;;
2652;SDS011;1336;48.692;9.144;2022-07-29T05:26:26;4.83;;;4.53;;
2652;SDS011;1336;48.692;9.144;2022-07-29T05:27:18;4.93;;;4.53;;
2652;SDS011;1336;48.692;9.144;2022-07-29T05:28:09;4.90;;;4.50;;
2652;SDS011;1336;48.692;9.144;2022-07-29T05:29:00;4.80;;;4.20;;
2652;SDS011;1336;48.692;9.144;2022-07-29T05:29:51;5.53;;;4.50;;
2652;SDS011;1336;48.692;9.144;2022-07-29T05:30:43;4.68;;;4.38;;
2652;SDS011;1336;48.692;9.144;2022-07-29T05:31:35;4.40;;;4.10;;
2652;SDS011;1336;48.692;9.144;2022-07-29T05:32:27;5.60;;;4.70;;
2652;SDS011;1336;48.692;9.144;2022-07-29T05:33:18;4.50;;;4.20;;
2652;SDS011;1336;48.692;9.144;2022-07-29T05:34:10;5.25;;;4.85;;
2652;SDS011;1336;48.692;9.144;2022-07-29T05:35:01;4.10;;;3.80;;
2652;SDS011;1336;48.692;9.144;2022-07-29T05:35:52;4.90;;;4.50;;
2652;SDS011;1336;48.692;9.144;2022-07-29T05:36:43;4.43;;;4.13;;
2652;SDS011;1336;48.692;9.144;2022-07-29T05:37:35;5.20;;;4.80;;
2652;SDS011;1336;48.692;9.144;2022-07-29T05:38:26;4.57;;;4.17;;
2652;SDS011;1336;48.692;9.144;2022-07-29T05:39:17;4.22;;;3.92;;
2652;SDS011;1336;48.692;9.144;2022-07-29T05:40:09;5.53;;;4.50;;
2652;SDS011;1336;48.692;9.144;2022-07-29T05:41:01;4.90;;;4.50;;
2652;SDS011;1336;48.692;9.144;2022-07-29T05:41:52;5.10;;;4.70;;
2652;SDS011;1336;48.692;9.144;2022-07-29T05:42:44;4.50;;;4.20;;
2652;SDS011;1336;48.692;9.144;2022-07-29T05:43:35;4.70;;;4.40;;
2652;SDS011;1336;48.692;9.144;2022-07-29T05:44:26;4.75;;;4.35;;
2652;SDS011;1336;48.692;9.144;2022-07-29T05:45:17;4.67;;;4.27;;
2652;SDS011;1336;48.692;9.144;2022-07-29T05:46:09;4.60;;;4.30;;
2652;SDS011;1336;48.692;9.144;2022-07-29T05:47:01;4.87;;;4.47;;
2652;SDS011;1336;48.692;9.144;2022-07-29T05:47:53;4.45;;;4.10;;
2652;SDS011;1336;48.692;9.144;2022-07-29T05:48:44;4.70;;;4.40;;
2652;SDS011;1336;48.692;9.144;2022-07-29T05:49:35;5.05;;;4.55;;
2652;SDS011;1336;48.692;9.144;2022-07-29T05:50:26;4.40;;;4.10;;
2652;SDS011;1336;48.692;9.144;2022-07-29T05:51:18;4.60;;;4.30;;
2652;SDS011;1336;48.692;9.144;2022-07-29T05:52:09;4.13;;;3.83;;
2652;SDS011;1336;48.692;9.144;2022-07-29T05:53:01;4.15;;;3.85;;
2652;SDS011;1336;48.692;9.144;2022-07-29T05:53:51;4.00;;;3.70;;
2652;SDS011;1336;48.692;9.144;2022-07-29T05:54:43;3.90;;;3.60;;
2652;SDS011;1336;48.692;9.144;2022-07-29T05:55:34;4.40;;;4.10;;
2652;SDS011;1336;48.692;9.144;2022-07-29T05:56:26;4.50;;;4.10;;
2652;SDS011;1336;48.692;9.144;2022-07-29T05:57:16;4.03;;;3.73;;
2652;SDS011;1336;48.692;9.144;2022-07-29T05:58:08;4.15;;;3.75;;
2652;SDS011;1336;48.692;9.144;2022-07-29T05:58:59;4.00;;;3.70;;
2652;SDS011;1336;48.692;9.144;2022-07-29T05:59:51;4.30;;;4.00;;
2652;SDS011;1336;48.692;9.144;2022-07-29T06:00:42;3.97;;;3.67;;
2652;SDS011;1336;48.692;9.144;2022-07-29T06:01:34;4.18;;;3.78;;
2652;SDS011;1336;48.692;9.144;2022-07-29T06:02:30;4.10;;;3.80;;
2652;SDS011;1336;48.692;9.144;2022-07-29T06:03:22;3.85;;;3.55;;
2652;SDS011;1336;48.692;9.144;2022-07-29T06:04:13;4.13;;;3.73;;
2652;SDS011;1336;48.692;9.144;2022-07-29T06:05:05;5.95;;;3.60;;
2652;SDS011;1336;48.692;9.144;2022-07-29T06:05:57;3.95;;;3.60;;
2652;SDS011;1336;48.692;9.144;2022-07-29T06:06:49;4.22;;;3.83;;
2652;SDS011;1336;48.692;9.144;2022-07-29T06:07:40;4.07;;;3.67;;
2652;SDS011;1336;48.692;9.144;2022-07-29T06:08:31;3.65;;;3.30;;
2652;SDS011;1336;48.692;9.144;2022-07-29T06:09:23;3.55;;;3.25;;
2652;SDS011;1336;48.692;9.144;2022-07-29T06:10:15;4.25;;;3.85;;
2652;SDS011;1336;48.692;9.144;2022-07-29T06:11:06;4.20;;;3.80;;
2652;SDS011;1336;48.692;9.144;2022-07-29T06:11:58;4.75;;;3.80;;
2652;SDS011;1336;48.692;9.144;2022-07-29T06:12:49;4.07;;;3.67;;
2652;SDS011;1336;48.692;9.144;2022-07-29T06:13:41;4.97;;;3.63;;
2652;SDS011;1336;48.692;9.144;2022-07-29T06:14:32;4.10;;;3.80;;
2652;SDS011;1336;48.692;9.144;2022-07-29T06:15:23;4.38;;;3.97;;
2652;SDS011;1336;48.692;9.144;2022-07-29T06:16:14;3.53;;;3.33;;
2652;SDS011;1336;48.692;9.144;2022-07-29T06:17:06;3.90;;;3.60;;
2652;SDS011;1336;48.692;9.144;2022-07-29T06:17:58;4.43;;;3.97;;
2652;SDS011;1336;48.692;9.144;2022-07-29T06:18:50;4.07;;;3.78;;
2652;SDS011;1336;48.692;9.144;2022-07-29T06:19:42;4.57;;;4.25;;
2652;SDS011;1336;48.692;9.144;2022-07-29T06:20:33;3.83;;;3.60;;
2652;SDS011;1336;48.692;9.144;2022-07-29T06:21:24;4.43;;;3.73;;
2652;SDS011;1336;48.692;9.144;2022-07-29T06:22:16;3.92;;;3.70;;
2652;SDS011;1336;48.692;9.144;2022-07-29T06:23:07;4.13;;;3.73;;
2652;SDS011;1336;48.692;9.144;2022-07-29T06:23:59;4.53;;;4.18;;
2652;SDS011;1336;48.692;9.144;2022-07-29T06:24:50;4.20;;;3.90;;
2652;SDS011;1336;48.692;9.144;2022-07-29T06:25:42;5.05;;;4.18;;
2652;SDS011;1336;48.692;9.144;2022-07-29T06:26:33;4.20;;;3.90;;
2652;SDS011;1336;48.692;9.144;2022-07-29T06:27:25;4.38;;;3.97;;
2652;SDS011;1336;48.692;9.144;2022-07-29T06:28:15;4.10;;;3.80;;
2652;SDS011;1336;48.692;9.144;2022-07-29T06:29:07;4.25;;;3.95;;
2652;SDS011;1336;48.692;9.144;2022-07-29T06:30:00;3.92;;;3.63;;
2652;SDS011;1336;48.692;9.144;2022-07-29T06:30:52;4.18;;;3.88;;
2652;SDS011;1336;48.692;9.144;2022-07-29T06:31:43;4.43;;;4.07;;
2652;SDS011;1336;48.692;9.144;2022-07-29T06:32:35;5.53;;;4.20;;
2652;SDS011;1336;48.692;9.144;2022-07-29T06:33:27;4.70;;;4.30;;
2652;SDS011;1336;48.692;9.144;2022-07-29T06:34:19;4.00;;;3.60;;
2652;SDS011;1336;48.692;9.144;2022-07-29T06:35:10;4.60;;;4.23;;
2652;SDS011;1336;48.692;9.144;2022-07-29T06:36:03;4.50;;;4.10;;
2652;SDS011;1336;48.692;9.144;2022-07-29T06:36:54;3.90;;;3.60;;
2652;SDS011;1336;48.692;9.144;2022-07-29T06:37:46;3.67;;;3.47;;
2652;SDS011;1336;48.692;9.144;2022-07-29T06:38:36;4.83;;;4.53;;
2652;SDS011;1336;48.692;9.144;2022-07-29T06:39:28;5.25;;;4.22;;
2652;SDS011;1336;48.692;9.144;2022-07-29T06:40:19;6.90;;;4.20;;
2652;SDS011;1336;48.692;9.144;2022-07-29T06:41:29;4.35;;;3.95;;
2652;SDS011;1336;48.692;9.144;2022-07-29T06:42:20;5.50;;;4.60;;
2652;SDS011;1336;48.692;9.144;2022-07-29T06:43:11;4.53;;;4.13;;
2652;SDS011;1336;48.692;9.144;2022-07-29T06:44:03;4.38;;;3.88;;
2652;SDS011;1336;48.692;9.144;2022-07-29T06:44:54;4.80;;;4.50;;
2652;SDS011;1336;48.692;9.144;2022-07-29T06:45:46;4.30;;;3.90;;
2652;SDS011;1336;48.692;9.144;2022-07-29T06:46:37;4.60;;;4.20;;
2652;SDS011;1336;48.692;9.144;2022-07-29T06:47:28;5.00;;;4.60;;
2652;SDS011;1336;48.692;9.144;2022-07-29T06:48:19;4.53;;;4.17;;
2652;SDS011;1336;48.692;9.144;2022-07-29T06:49:12;4.40;;;4.10;;
2652;SDS011;1336;48.692;9.144;2022-07-29T06:50:04;4.93;;;4.40;;
2652;SDS011;1336;48.692;9.144;2022-07-29T06:50:56;4.75;;;4.35;;
2652;SDS011;1336;48.692;9.144;2022-07-29T06:51:47;4.57;;;4.18;;
2652;SDS011;1336;48.692;9.144;2022-07-29T06:52:38;5.07;;;4.63;;
2652;SDS011;1336;48.692;9.144;2022-07-29T06:53:30;4.50;;;4.10;;
2652;SDS011;1336;48.692;9.144;2022-07-29T06:54:22;5.28;;;4.10;;
2652;SDS011;1336;48.692;9.144;2022-07-29T06:55:14;4.80;;;4.50;;
2652;SDS011;1336;48.692;9.144;2022-07-29T06:56:05;4.97;;;4.57;;
2652;SDS011;1336;48.692;9.144;2022-07-29T06:56:59;4.55;;;4.25;;
2652;SDS011;1336;48.692;9.144;2022-07-29T06:57:49;4.50;;;4.10;;
2652;SDS011;1336;48.692;9.144;2022-07-29T06:58:41;5.93;;;5.43;;
2652;SDS011;1336;48.692;9.144;2022-07-29T06:59:32;5.60;;;5.10;;
2652;SDS011;1336;48.692;9.144;2022-07-29T07:00:24;4.32;;;4.00;;
2652;SDS011;1336;48.692;9.144;2022-07-29T07:01:15;5.03;;;4.70;;
2652;SDS011;1336;48.692;9.144;2022-07-29T07:02:06;4.93;;;4.60;;
2652;SDS011;1336;48.692;9.144;2022-07-29T07:02:57;4.70;;;4.40;;
2652;SDS011;1336;48.692;9.144;2022-07-29T07:03:49;4.80;;;4.40;;
2652;SDS011;1336;48.692;9.144;2022-07-29T07:04:41;4.80;;;4.50;;
2652;SDS011;1336;48.692;9.144;2022-07-29T07:05:33;5.03;;;4.63;;
2652;SDS011;1336;48.692;9.144;2022-07-29T07:06:23;4.80;;;4.40;;
2652;SDS011;1336;48.692;9.144;2022-07-29T07:07:15;4.80;;;4.40;;
2652;SDS011;1336;48.692;9.144;2022-07-29T07:08:06;4.77;;;4.47;;
2652;SDS011;1336;48.692;9.144;2022-07-29T07:08:58;5.35;;;4.50;;
2652;SDS011;1336;48.692;9.144;2022-07-29T07:09:48;5.43;;;5.00;;
2652;SDS011;1336;48.692;9.144;2022-07-29T07:10:40;5.65;;;4.88;;
2652;SDS011;1336;48.692;9.144;2022-07-29T07:11:31;5.73;;;5.33;;
2652;SDS011;1336;48.692;9.144;2022-07-29T07:12:23;4.97;;;4.57;;
2652;SDS011;1336;48.692;9.144;2022-07-29T07:13:14;5.23;;;4.77;;
2652;SDS011;1336;48.692;9.144;2022-07-29T07:14:07;5.85;;;5.35;;
2652;SDS011;1336;48.692;9.144;2022-07-29T07:14:58;5.35;;;4.88;;
2652;SDS011;1336;48.692;9.144;2022-07-29T07:15:49;5.50;;;4.13;;
2652;SDS011;1336;48.692;9.144;2022-07-29T07:16:42;5.80;;;5.00;;
2652;SDS011;1336;48.692;9.144;2022-07-29T07:17:32;4.87;;;4.57;;
2652;SDS011;1336;48.692;9.144;2022-07-29T07:18:24;4.80;;;4.50;;
2652;SDS011;1336;48.692;9.144;2022-07-29T07:19:16;5.35;;;4.85;;
2652;SDS011;1336;48.692;9.144;2022-07-29T07:20:10;5.07;;;4.78;;
2652;SDS011;1336;48.692;9.144;2022-07-29T07:21:02;6.05;;;5.35;;
2652;SDS011;1336;48.692;9.144;2022-07-29T07:21:54;5.20;;;4.90;;
2652;SDS011;1336;48.692;9.144;2022-07-29T07:22:46;5.03;;;4.63;;
2652;SDS011;1336;48.692;9.144;2022-07-29T07:23:37;5.67;;;5.27;;
2652;SDS011;1336;48.692;9.144;2022-07-29T07:24:29;5.13;;;4.72;;
2652;SDS011;1336;48.692;9.144;2022-07-29T07:25:20;7.73;;;4.80;;
2652;SDS011;1336;48.692;9.144;2022-07-29T07:26:12;6.13;;;5.00;;
2652;SDS011;1336;48.692;9.144;2022-07-29T07:27:02;5.57;;;5.07;;
2652;SDS011;1336;48.692;9.144;2022-07-29T07:27:54;6.00;;;5.50;;
2652;SDS011;1336;48.692;9.144;2022-07-29T07:28:45;5.20;;;4.70;;
2652;SDS011;1336;48.692;9.144;2022-07-29T07:29:37;4.93;;;4.63;;
2652;SDS011;1336;48.692;9.144;2022-07-29T07:30:31;5.22;;;4.82;;
2652;SDS011;1336;48.692;9.144;2022-07-29T07:31:22;5.03;;;4.63;;
2652;SDS011;1336;48.692;9.144;2022-07-29T07:32:13;5.20;;;4.80;;
2652;SDS011;1336;48.692;9.144;2022-07-29T07:33:06;5.30;;;4.90;;
2652;SDS011;1336;48.692;9.144;2022-07-29T07:33:57;5.00;;;4.60;;
2652;SDS011;1336;48.692;9.144;2022-07-29T07:34:49;4.93;;;4.63;;
2652;SDS011;1336;48.692;9.144;2022-07-29T07:35:41;7.47;;;5.50;;
2652;SDS011;1336;48.692;9.144;2022-07-29T07:36:34;5.05;;;4.65;;
2652;SDS011;1336;48.692;9.144;2022-07-29T07:37:24;6.00;;;5.40;;
2652;SDS011;1336;48.692;9.144;2022-07-29T07:38:17;5.97;;;4.82;;
2652;SDS011;1336;48.692;9.144;2022-07-29T07:39:08;5.47;;;5.07;;
2652;SDS011;1336;48.692;9.144;2022-07-29T07:39:59;5.40;;;4.95;;
2652;SDS011;1336;48.692;9.144;2022-07-29T07:40:50;5.22;;;4.82;;
2652;SDS011;1336;48.692;9.144;2022-07-29T07:41:42;5.00;;;4.60;;
2652;SDS011;1336;48.692;9.144;2022-07-29T07:42:33;5.73;;;5.20;;
2652;SDS011;1336;48.692;9.144;2022-07-29T07:43:25;5.43;;;4.93;;
2652;SDS011;1336;48.692;9.144;2022-07-29T07:44:15;5.70;;;5.20;;
2652;SDS011;1336;48.692;9.144;2022-07-29T07:45:08;5.90;;;5.40;;
2652;SDS011;1336;48.692;9.144;2022-07-29T07:45:59;5.70;;;5.20;;
2652;SDS011;1336;48.692;9.144;2022-07-29T07:46:51;5.43;;;5.03;;
2652;SDS011;1336;48.692;9.144;2022-07-29T07:47:42;5.72;;;5.28;;
2652;SDS011;1336;48.692;9.144;2022-07-29T07:48:34;6.20;;;5.50;;
2652;SDS011;1336;48.692;9.144;2022-07-29T07:49:26;5.82;;;5.20;;
2652;SDS011;1336;48.692;9.144;2022-07-29T07:50:17;6.07;;;5.50;;
2652;SDS011;1336;48.692;9.144;2022-07-29T07:51:09;5.13;;;4.73;;
2652;SDS011;1336;48.692;9.144;2022-07-29T07:52:01;7.28;;;5.50;;
2652;SDS011;1336;48.692;9.144;2022-07-29T07:52:53;6.47;;;5.60;;
2652;SDS011;1336;48.692;9.144;2022-07-29T07:53:47;6.18;;;5.70;;
2652;SDS011;1336;48.692;9.144;2022-07-29T07:54:40;7.30;;;5.30;;
2652;SDS011;1336;48.692;9.144;2022-07-29T07:55:33;5.72;;;5.30;;
2652;SDS011;1336;48.692;9.144;2022-07-29T07:56:23;6.60;;;5.40;;
2652;SDS011;1336;48.692;9.144;2022-07-29T07:57:15;5.38;;;4.97;;
2652;SDS011;1336;48.692;9.144;2022-07-29T07:58:06;5.40;;;5.00;;
2652;SDS011;1336;48.692;9.144;2022-07-29T07:58:58;5.68;;;5.18;;
2652;SDS011;1336;48.692;9.144;2022-07-29T07:59:49;6.00;;;5.50;;
2652;SDS011;1336;48.692;9.144;2022-07-29T08:00:41;5.10;;;4.80;;
2652;SDS011;1336;48.692;9.144;2022-07-29T08:01:31;6.47;;;5.60;;
2652;SDS011;1336;48.692;9.144;2022-07-29T08:02:23;5.90;;;5.50;;
2652;SDS011;1336;48.692;9.144;2022-07-29T08:03:14;5.97;;;5.47;;
2652;SDS011;1336;48.692;9.144;2022-07-29T08:04:06;6.00;;;5.50;;
2652;SDS011;1336;48.692;9.144;2022-07-29T08:04:57;6.25;;;5.75;;
2652;SDS011;1336;48.692;9.144;2022-07-29T08:05:49;6.13;;;5.63;;
2652;SDS011;1336;48.692;9.144;2022-07-29T08:06:42;5.70;;;5.20;;
2652;SDS011;1336;48.692;9.144;2022-07-29T08:07:34;7.25;;;5.80;;
2652;SDS011;1336;48.692;9.144;2022-07-29T08:08:24;6.20;;;5.70;;
2652;SDS011;1336;48.692;9.144;2022-07-29T08:09:16;7.38;;;5.50;;
2652;SDS011;1336;48.692;9.144;2022-07-29T08:10:07;5.83;;;5.40;;
2652;SDS011;1336;48.692;9.144;2022-07-29T08:10:59;7.82;;;6.20;;
2652;SDS011;1336;48.692;9.144;2022-07-29T08:11:52;6.10;;;5.70;;
2652;SDS011;1336;48.692;9.144;2022-07-29T08:12:43;6.05;;;5.45;;
2652;SDS011;1336;48.692;9.144;2022-07-29T08:13:34;5.60;;;5.10;;
2652;SDS011;1336;48.692;9.144;2022-07-29T08:14:27;6.60;;;6.00;;
2652;SDS011;1336;48.692;9.144;2022-07-29T08:15:18;5.93;;;5.43;;
2652;SDS011;1336;48.692;9.144;2022-07-29T08:16:10;6.22;;;5.63;;
2652;SDS011;1336;48.692;9.144;2022-07-29T08:17:05;5.93;;;5.53;;
2652;SDS011;1336;48.692;9.144;2022-07-29T08:17:56;5.50;;;5.10;;
2652;SDS011;1336;48.692;9.144;2022-07-29T08:18:47;7.70;;;5.73;;
2652;SDS011;1336;48.692;9.144;2022-07-29T08:19:39;7.40;;;5.60;;
2652;SDS011;1336;48.692;9.144;2022-07-29T08:20:30;9.40;;;5.50;;
2652;SDS011;1336;48.692;9.144;2022-07-29T08:21:23;5.75;;;5.28;;
2652;SDS011;1336;48.692;9.144;2022-07-29T08:22:15;6.87;;;5.63;;
2652;SDS011;1336;48.692;9.144;2022-07-29T08:23:07;5.82;;;5.43;;
2652;SDS011;1336;48.692;9.144;2022-07-29T08:23:58;6.03;;;5.43;;
2652;SDS011;1336;48.692;9.144;2022-07-29T08:25:04;6.50;;;6.10;;
2652;SDS011;1336;48.692;9.144;2022-07-29T08:25:56;5.47;;;4.97;;
2652;SDS011;1336;48.692;9.144;2022-07-29T08:26:47;5.93;;;5.40;;
2652;SDS011;1336;48.692;9.144;2022-07-29T08:27:39;6.43;;;5.20;;
2652;SDS011;1336;48.692;9.144;2022-07-29T08:28:30;5.77;;;5.30;;
2652;SDS011;1336;48.692;9.144;2022-07-29T08:29:22;5.90;;;5.40;;
2652;SDS011;1336;48.692;9.144;2022-07-29T08:30:12;5.43;;;5.03;;
2652;SDS011;1336;48.692;9.144;2022-07-29T08:31:04;6.20;;;5.70;;
2652;SDS011;1336;48.692;9.144;2022-07-29T08:31:55;6.22;;;5.47;;
2652;SDS011;1336;48.692;9.144;2022-07-29T08:32:47;6.15;;;5.35;;
2652;SDS011;1336;48.692;9.144;2022-07-29T08:33:38;6.03;;;5.43;;
2652;SDS011;1336;48.692;9.144;2022-07-29T08:34:30;6.50;;;6.00;;
2652;SDS011;1336;48.692;9.144;2022-07-29T08:35:22;5.53;;;5.03;;
2652;SDS011;1336;48.692;9.144;2022-07-29T08:36:15;5.70;;;5.30;;
2652;SDS011;1336;48.692;9.144;2022-07-29T08:37:06;5.90;;;5.40;;
2652;SDS011;1336;48.692;9.144;2022-07-29T08:37:59;6.17;;;5.77;;
2652;SDS011;1336;48.692;9.144;2022-07-29T08:38:50;5.82;;;4.97;;
2652;SDS011;1336;48.692;9.144;2022-07-29T08:39:41;6.10;;;5.70;;
2652;SDS011;1336;48.692;9.144;2022-07-29T08:40:33;6.15;;;5.35;;
2652;SDS011;1336;48.692;9.144;2022-07-29T08:41:24;5.47;;;5.07;;
2652;SDS011;1336;48.692;9.144;2022-07-29T08:42:15;6.35;;;5.63;;
2652;SDS011;1336;48.692;9.144;2022-07-29T08:43:08;7.55;;;5.70;;
2652;SDS011;1336;48.692;9.144;2022-07-29T08:43:58;6.80;;;6.20;;
2652;SDS011;1336;48.692;9.144;2022-07-29T08:44:50;5.97;;;5.47;;
2652;SDS011;1336;48.692;9.144;2022-07-29T08:45:42;6.67;;;6.07;;
2652;SDS011;1336;48.692;9.144;2022-07-29T08:46:37;6.25;;;5.80;;
2652;SDS011;1336;48.692;9.144;2022-07-29T08:47:28;6.93;;;5.68;;
2652;SDS011;1336;48.692;9.144;2022-07-29T08:48:21;6.45;;;5.85;;
2652;SDS011;1336;48.692;9.144;2022-07-29T08:49:12;6.45;;;5.85;;
2652;SDS011;1336;48.692;9.144;2022-07-29T08:50:04;6.13;;;5.53;;
2652;SDS011;1336;48.692;9.144;2022-07-29T08:50:56;5.50;;;5.00;;
2652;SDS011;1336;48.692;9.144;2022-07-29T08:51:49;6.13;;;5.63;;
2652;SDS011;1336;48.692;9.144;2022-07-29T08:52:41;6.22;;;5.75;;
2652;SDS011;1336;48.692;9.144;2022-07-29T08:53:34;6.47;;;5.97;;
2652;SDS011;1336;48.692;9.144;2022-07-29T08:54:28;6.20;;;5.70;;
2652;SDS011;1336;48.692;9.144;2022-07-29T08:55:20;7.07;;;6.45;;
2652;SDS011;1336;48.692;9.144;2022-07-29T08:56:11;6.10;;;5.50;;
2652;SDS011;1336;48.692;9.144;2022-07-29T08:57:03;6.10;;;5.60;;
2652;SDS011;1336;48.692;9.144;2022-07-29T08:57:56;5.68;;;5.25;;
2652;SDS011;1336;48.692;9.144;2022-07-29T08:58:47;6.55;;;5.90;;
2652;SDS011;1336;48.692;9.144;2022-07-29T08:59:40;6.10;;;5.60;;
2652;SDS011;1336;48.692;9.144;2022-07-29T09:00:33;6.32;;;5.78;;
2652;SDS011;1336;48.692;9.144;2022-07-29T09:01:27;5.50;;;4.88;;
2652;SDS011;1336;48.692;9.144;2022-07-29T09:02:19;6.30;;;5.80;;
2652;SDS011;1336;48.692;9.144;2022-07-29T09:03:12;6.10;;;5.60;;
2652;SDS011;1336;48.692;9.144;2022-07-29T09:04:09;6.55;;;6.00;;
2652;SDS011;1336;48.692;9.144;2022-07-29T09:05:02;6.27;;;5.77;;
2652;SDS011;1336;48.692;9.144;2022-07-29T09:05:55;6.57;;;6.05;;
2652;SDS011;1336;48.692;9.144;2022-07-29T09:06:48;6.55;;;5.88;;
2652;SDS011;1336;48.692;9.144;2022-07-29T09:07:41;6.30;;;5.80;;
2652;SDS011;1336;48.692;9.144;2022-07-29T09:08:35;6.53;;;6.03;;
2652;SDS011;1336;48.692;9.144;2022-07-29T09:09:26;6.67;;;6.03;;
2652;SDS011;1336;48.692;9.144;2022-07-29T09:10:18;6.00;;;5.60;;
2652;SDS011;1336;48.692;9.144;2022-07-29T09:11:09;5.80;;;5.30;;
2652;SDS011;1336;48.692;9.144;2022-07-29T09:12:01;6.18;;;5.68;;
2652;SDS011;1336;48.692;9.144;2022-07-29T09:12:54;6.20;;;5.70;;
2652;SDS011;1336;48.692;9.144;2022-07-29T09:13:46;6.35;;;5.75;;
2652;SDS011;1336;48.692;9.144;2022-07-29T09:14:37;5.85;;;5.30;;
2652;SDS011;1336;48.692;9.144;2022-07-29T09:15:30;5.82;;;5.43;;
2652;SDS011;1336;48.692;9.144;2022-07-29T09:16:21;7.07;;;6.50;;
2652;SDS011;1336;48.692;9.144;2022-07-29T09:17:12;6.93;;;6.32;;
2652;SDS011;1336;48.692;9.144;2022-07-29T09:18:06;6.35;;;5.75;;
2652;SDS011;1336;48.692;9.144;2022-07-29T09:18:58;6.23;;;5.63;;
2652;SDS011;1336;48.692;9.144;2022-07-29T09:19:49;6.43;;;5.93;;
2652;SDS011;1336;48.692;9.144;2022-07-29T09:20:42;6.43;;;5.93;;
2652;SDS011;1336;48.692;9.144;2022-07-29T09:22:01;6.93;;;6.30;;
2652;SDS011;1336;48.692;9.144;2022-07-29T09:22:55;6.45;;;5.60;;
2652;SDS011;1336;48.692;9.144;2022-07-29T09:24:00;5.97;;;5.50;;
2652;SDS011;1336;48.692;9.144;2022-07-29T09:24:53;6.88;;;6.10;;
2652;SDS011;1336;48.692;9.144;2022-07-29T09:25:45;6.22;;;5.43;;
2652;SDS011;1336;48.692;9.144;2022-07-29T09:26:37;6.90;;;6.30;;
2652;SDS011;1336;48.692;9.144;2022-07-29T09:27:31;6.00;;;5.60;;
2652;SDS011;1336;48.692;9.144;2022-07-29T09:28:23;6.68;;;6.15;;
2652;SDS011;1336;48.692;9.144;2022-07-29T09:29:15;7.22;;;6.45;;
2652;SDS011;1336;48.692;9.144;2022-07-29T09:30:08;6.40;;;5.90;;
2652;SDS011;1336;48.692;9.144;2022-07-29T09:31:01;6.25;;;5.65;;
2652;SDS011;1336;48.692;9.144;2022-07-29T09:31:52;6.93;;;6.33;;
2652;SDS011;1336;48.692;9.144;2022-07-29T09:32:54;6.68;;;6.18;;
2652;SDS011;1336;48.692;9.144;2022-07-29T09:33:46;7.07;;;6.15;;
2652;SDS011;1336;48.692;9.144;2022-07-29T09:34:38;6.53;;;6.03;;
2652;SDS011;1336;48.692;9.144;2022-07-29T09:35:30;6.00;;;5.60;;
2652;SDS011;1336;48.692;9.144;2022-07-29T09:36:22;6.55;;;5.95;;
2652;SDS011;1336;48.692;9.144;2022-07-29T09:37:13;6.87;;;6.33;;
2652;SDS011;1336;48.692;9.144;2022-07-29T09:38:17;5.80;;;5.40;;
2652;SDS011;1336;48.692;9.144;2022-07-29T09:39:09;6.80;;;6.23;;
2652;SDS011;1336;48.692;9.144;2022-07-29T09:40:05;6.38;;;5.88;;
2652;SDS011;1336;48.692;9.144;2022-07-29T09:41:03;6.10;;;5.60;;
2652;SDS011;1336;48.692;9.144;2022-07-29T09:41:58;6.07;;;5.47;;
2652;SDS011;1336;48.692;9.144;2022-07-29T09:42:50;6.38;;;5.88;;
2652;SDS011;1336;48.692;9.144;2022-07-29T09:43:52;6.20;;;5.70;;
2652;SDS011;1336;48.692;9.144;2022-07-29T09:44:44;5.97;;;5.47;;
2652;SDS011;1336;48.692;9.144;2022-07-29T09:45:38;6.20;;;5.70;;
2652;SDS011;1336;48.692;9.144;2022-07-29T09:46:29;6.40;;;5.80;;
2652;SDS011;1336;48.692;9.144;2022-07-29T09:47:21;7.15;;;5.80;;
2652;SDS011;1336;48.692;9.144;2022-07-29T09:48:16;6.50;;;5.97;;
2652;SDS011;1336;48.692;9.144;2022-07-29T09:49:08;6.00;;;5.40;;
2652;SDS011;1336;48.692;9.144;2022-07-29T09:50:01;6.70;;;6.13;;
2652;SDS011;1336;48.692;9.144;2022-07-29T09:50:52;6.10;;;5.50;;
2652;SDS011;1336;48.692;9.144;2022-07-29T09:51:44;6.93;;;5.63;;
2652;SDS011;1336;48.692;9.144;2022-07-29T09:52:44;6.40;;;5.80;;
2652;SDS011;1336;48.692;9.144;2022-07-29T09:53:37;6.40;;;5.40;;
2652;SDS011;1336;48.692;9.144;2022-07-29T09:54:31;6.30;;;5.83;;
2652;SDS011;1336;48.692;9.144;2022-07-29T09:55:26;7.20;;;5.33;;
2652;SDS011;1336;48.692;9.144;2022-07-29T09:56:17;6.03;;;5.53;;
2652;SDS011;1336;48.692;9.144;2022-07-29T09:57:09;6.60;;;6.10;;
2652;SDS011;1336;48.692;9.144;2022-07-29T09:58:16;6.68;;;5.38;;
2652;SDS011;1336;48.692;9.144;2022-07-29T09:59:09;6.10;;;5.70;;
2652;SDS011;1336;48.692;9.144;2022-07-29T10:00:03;6.65;;;6.05;;
2652;SDS011;1336;48.692;9.144;2022-07-29T10:00:56;6.00;;;5.60;;
2652;SDS011;1336;48.692;9.144;2022-07-29T10:01:48;6.50;;;5.90;;
2652;SDS011;1336;48.692;9.144;2022-07-29T10:02:41;6.15;;;5.65;;
2652;SDS011;1336;48.692;9.144;2022-07-29T10:03:36;6.65;;;5.80;;
2652;SDS011;1336;48.692;9.144;2022-07-29T10:04:41;5.90;;;5.50;;
2652;SDS011;1336;48.692;9.144;2022-07-29T10:05:33;6.35;;;5.85;;
2652;SDS011;1336;48.692;9.144;2022-07-29T10:06:24;7.83;;;6.17;;
2652;SDS011;1336;48.692;9.144;2022-07-29T10:07:16;6.50;;;6.00;;
2652;SDS011;1336;48.692;9.144;2022-07-29T10:08:07;6.40;;;5.80;;
2652;SDS011;1336;48.692;9.144;2022-07-29T10:09:10;6.10;;;5.60;;
2652;SDS011;1336;48.692;9.144;2022-07-29T10:10:02;7.33;;;5.50;;
2652;SDS011;1336;48.692;9.144;2022-07-29T10:11:03;7.17;;;6.27;;
2652;SDS011;1336;48.692;9.144;2022-07-29T10:12:06;5.90;;;5.40;;
2652;SDS011;1336;48.692;9.144;2022-07-29T10:13:04;7.10;;;6.15;;
2652;SDS011;1336;48.692;9.144;2022-07-29T10:13:56;7.07;;;6.40;;
2652;SDS011;1336;48.692;9.144;2022-07-29T10:14:49;5.80;;;5.37;;
2652;SDS011;1336;48.692;9.144;2022-07-29T10:15:41;6.37;;;5.83;;
2652;SDS011;1336;48.692;9.144;2022-07-29T10:16:35;6.60;;;6.03;;
2652;SDS011;1336;48.692;9.144;2022-07-29T10:17:26;6.13;;;5.55;;
2652;SDS011;1336;48.692;9.144;2022-07-29T10:18:19;5.67;;;5.27;;
2652;SDS011;1336;48.692;9.144;2022-07-29T10:19:10;6.30;;;5.80;;
2652;SDS011;1336;48.692;9.144;2022-07-29T10:20:01;6.10;;;5.60;;
2652;SDS011;1336;48.692;9.144;2022-07-29T10:20:53;7.97;;;6.50;;
2652;SDS011;1336;48.692;9.144;2022-07-29T10:21:45;7.13;;;6.40;;
2652;SDS011;1336;48.692;9.144;2022-07-29T10:22:36;6.63;;;6.13;;
2652;SDS011;1336;48.692;9.144;2022-07-29T10:23:29;6.47;;;5.87;;
2652;SDS011;1336;48.692;9.144;2022-07-29T10:24:20;5.90;;;5.47;;
2652;SDS011;1336;48.692;9.144;2022-07-29T10:25:14;6.13;;;5.63;;